Impacts METAR Board INFO
IDs:

KMEM - Memphis Intl, TN, US

Updated at: 0023 UTC 23 Jan 2018
Potential Impact None Slight Moderate High
Time22/12Z 22/13Z 22/14Z 22/15Z 22/16Z 22/17Z 22/18Z 22/19Z 22/20Z 22/21Z 22/22Z 22/23Z 23/00Z
VIS6 9 10 10 10 10 10 10 10 10 10 10 10
CIG37 40 70 -- -- -- -- -- -- -- -- -- --
CoverOVCOVCOVCSCTSCTSCTFEWCLRCLRCLRCLRCLRCLR
FltCatVFRVFRVFRVFRVFRVFRVFRVFRVFRVFRVFRVFRVFR
WX-RA BR-RA----------------------
WDir240200170180180200210230210210240240260
WSpd7 5 6 11 11 12 12 18 21 16 20 15 16
WGst-- -- -- -- -- -- -- 24 27 25 30 21 24
Raw hourly METARs
KMEM 221154Z 24007KT 6SM -RA BR SCT028 BKN037 OVC047 13/12 A2983 RMK AO2 TSB08E50 SLP098 OCNL LTG DSNT SE P0052 60068 70068 T01280122 10178 20128 50021 $
KMEM 221254Z 20005KT 9SM -RA SCT037 BKN040 OVC047 12/10 A2984 RMK AO2 SLP103 P0009 T01170100 $
KMEM 221354Z 17006KT 10SM BKN070 OVC100 11/09 A2981 RMK AO2 RAE32 SLP093 P0001 T01110094 $
KMEM 221454Z 18011KT 10SM FEW013 SCT070 SCT100 12/09 A2982 RMK AO2 SLP095 60010 T01170094 58004 $
KMEM 221554Z 18011KT 10SM FEW013 FEW075 SCT110 14/10 A2982 RMK AO2 SLP096 T01390100 $
KMEM 221654Z 20012KT 10SM FEW013 FEW070 SCT090 15/08 A2981 RMK AO2 SLP091 T01500078 $
KMEM 221754Z 21012KT 10SM FEW070 FEW090 17/06 A2977 RMK AO2 SLP078 60010 T01670056 10167 20111 58016 $
KMEM 221854Z 23018G24KT 10SM CLR 17/04 A2973 RMK AO2 PK WND 20026/1815 SLP066 T01670039 $
KMEM 221954Z 21021G27KT 10SM CLR 17/02 A2972 RMK AO2 PK WND 21030/1906 SLP061 T01670017 $
KMEM 222054Z 21016G25KT 10SM CLR 16/M01 A2973 RMK AO2 PK WND 23029/2022 SLP063 T01611006 55014 $
KMEM 222154Z 24020G30KT 10SM CLR 16/M02 A2975 RMK AO2 PK WND 24032/2141 SLP071 T01561017 $
KMEM 222254Z 24015G21KT 10SM CLR 14/M01 A2977 RMK AO2 PK WND 23032/2205 SLP079 T01391006 $
KMEM 222354Z 26016G24KT 10SM CLR 12/M01 A2980 RMK AO2 SLP090 T01221011 10172 20122 53025 $